Welcome!

Visit our other weather sites:

Template documentation
and downloads

And another site



There are no active watches, warnings or advisories

Select another period ( hide this area )

Units Period Custom range Directly to
Metric English Both
Daily Weekly Monthly Yearly
use both date-selectors for a custom range
previous Day
With this date

WeatherUnderground graphs for this period ( click here )


Daily Summary for Wednesday Sep 19 2018
Time Temp. ( °C ) Dew pt. ( °C ) Wind ( km/h ) from Gust ( km/h ) Pressure ( hPa ) Humid.( % ) Rainrate ( cm )
High32,3 21,2 48,1 South ( 636/1643 ) 34,0 1007,7 93 -
Average23,2 19,2 15,8 SSE #48/168 11,9 1005,6 80 -
Low19,4 18,0 3,7   1,4 1005,6 48 -
Daily Tabular details for Wednesday Sep 19 2018
Time Temp. ( °C ) Dew pt. ( °C ) Wind ( km/h ) from Gust ( km/h ) Pressure ( hPa ) Humid.( % ) Rainrate ( cm )
00:04 20,4 18,3 9,3 East 5,5 1007,7 88 -
00:09 20,3 18,3 11,1 East 8,9 1007,7 88 -
00:14 20,3 18,3 11,1 East 8,4 1007,3 88 -
00:19 20,3 18,3 9,7 East 7,1 1007,7 88 -
00:24 20,3 18,2 8,0 East 6,4 1007,3 88 -
00:29 20,2 18,1 9,7 East 7,9 1007,3 88 -
00:34 20,2 18,3 11,1 East 8,7 1007,7 89 -
00:39 20,3 18,4 13,0 East 8,5 1007,7 89 -
00:44 20,3 18,3 9,7 East 7,7 1007,3 88 -
00:49 20,3 18,3 9,3 East 6,8 1007,7 88 -
00:54 20,3 18,3 9,7 East 7,2 1007,3 88 -
00:59 20,3 18,2 13,0 East 10,1 1007,7 88 -
01:04 20,2 18,2 11,1 East 8,7 1007,7 88 -
01:09 20,2 18,3 14,8 ESE 11,1 1007,3 89 -
01:14 20,2 18,3 14,8 ESE 11,1 1007,7 89 -
01:19 20,2 18,3 14,5 ESE 9,2 1007,7 89 -
01:24 20,2 18,3 14,8 ESE 11,4 1007,7 89 -
01:29 20,2 18,3 14,8 ESE 12,6 1007,7 89 -
01:34 20,2 18,3 11,3 ESE 9,0 1007,7 89 -
01:39 20,2 18,3 13,0 ESE 10,6 1007,7 89 -
01:44 20,2 18,3 12,9 ESE 9,7 1007,7 89 -
01:49 20,2 18,3 13,0 ESE 9,0 1007,7 89 -
01:54 20,2 18,3 13,0 ESE 9,0 1007,7 89 -
01:59 20,2 18,3 11,1 ESE 8,2 1007,3 89 -
02:04 20,2 18,3 7,4 ESE 5,8 1007,7 89 -
02:09 20,2 18,3 8,0 SE 5,3 1007,3 89 -
02:14 20,2 18,3 8,0 SE 5,5 1007,3 89 -
02:19 20,1 18,2 6,4 SE 5,0 1007,3 89 -
02:24 20,1 18,2 5,6 SE 4,0 1007,3 89 -
02:29 20,2 18,3 11,3 ESE 7,1 1007,3 89 -
02:34 20,2 18,3 13,0 ESE 10,9 1007,3 89 -
02:39 20,3 18,4 12,9 ESE 9,7 1007,3 89 -
02:44 20,3 18,2 5,6 ESE 2,9 1007,3 88 -
02:49 20,3 18,4 11,1 ESE 5,8 1007,3 89 -
02:54 20,3 18,4 7,4 SE 3,9 1007,3 89 -
02:59 20,2 18,3 5,6 SE 4,5 1007,3 89 -
03:04 20,2 18,3 5,6 SE 4,7 1007,3 89 -
03:09 20,1 18,2 7,4 ESE 4,7 1007,3 89 -
03:14 20,1 18,2 5,6 SE 4,3 1007,3 89 -
03:19 20,0 18,1 5,6 SE 4,0 1007,3 89 -
03:24 19,9 18,1 5,6 SE 4,2 1007,3 89 -
03:29 19,8 18,2 8,0 SE 5,0 1007,3 90 -
03:34 19,8 18,1 5,6 SE 4,0 1007,0 90 -
03:39 19,7 18,0 5,6 SE 3,5 1007,3 90 -
03:44 19,6 18,1 5,6 SE 2,7 1007,3 91 -
03:49 19,6 18,2 5,6 SE 2,7 1007,0 92 -
03:54 19,6 18,2 5,6 SE 4,7 1007,0 92 -
03:59 19,5 18,2 3,7 SE 2,7 1007,0 92 -
04:04 19,4 18,1 5,6 SE 2,4 1007,0 92 -
04:09 19,4 18,1 3,7 SE 1,4 1007,0 92 -
04:14 19,4 18,1 6,4 SE 3,4 1007,0 92 -
04:19 19,4 18,1 5,6 SE 3,4 1007,0 92 -
04:24 19,4 18,3 8,0 SE 6,6 1007,0 93 -
04:29 19,6 18,2 9,3 SE 6,9 1007,0 92 -
04:34 19,6 18,3 9,7 SE 7,4 1007,0 92 -
04:39 19,6 18,2 8,0 SE 7,1 1007,0 92 -
04:44 19,6 18,3 7,4 SSE 5,3 1007,0 92 -
04:49 19,6 18,2 8,0 SSE 6,1 1006,7 92 -
04:54 19,4 18,1 11,3 SSE 9,3 1006,7 92 -
04:59 19,5 18,2 11,3 SSE 9,8 1006,7 92 -
05:04 19,6 18,2 13,0 SSE 10,3 1006,7 92 -
05:09 19,6 18,1 11,3 SSE 10,5 1006,7 91 -
05:14 19,6 18,1 11,3 SSE 10,6 1006,7 91 -
05:19 19,6 18,2 11,1 SSE 9,8 1006,7 92 -
05:24 19,7 18,2 11,1 SSE 7,6 1007,0 91 -
05:29 19,7 18,2 8,0 SSE 6,8 1007,0 91 -
05:34 19,7 18,2 9,3 SE 7,1 1006,7 91 -
05:39 19,8 18,3 11,3 SE 10,3 1006,7 91 -
05:44 19,8 18,3 13,0 SSE 8,5 1007,0 91 -
05:49 19,8 18,3 7,4 SSE 7,2 1007,0 91 -
05:54 19,9 18,4 9,3 SE 5,8 1007,0 91 -
05:59 19,9 18,4 8,0 SE 5,8 1007,0 91 -
06:04 19,9 18,3 7,4 SSE 6,4 1007,0 90 -
06:09 20,0 18,3 7,4 SSE 6,9 1007,0 90 -
06:14 20,1 18,4 9,3 SSE 6,1 1007,0 90 -
06:19 20,2 18,5 7,4 SSE 7,2 1007,0 90 -
06:24 20,2 18,6 9,3 SSE 7,7 1007,0 90 -
06:29 20,3 18,4 9,7 SSE 8,4 1007,0 89 -
06:34 20,3 18,4 9,7 SSE 8,5 1007,0 89 -
06:39 20,2 18,3 11,1 SSE 9,3 1007,0 89 -
06:44 20,2 18,5 13,0 SSE 9,8 1007,0 90 -
06:49 20,3 18,6 11,1 South 8,0 1007,0 90 -
06:54 20,3 18,4 11,1 SSE 8,7 1007,0 89 -
06:59 20,4 18,6 8,0 SSE 4,7 1007,0 89 -
07:04 20,4 18,6 5,6 SE 3,9 1007,0 89 -
07:09 20,4 18,5 9,7 SE 5,3 1007,0 89 -
07:14 20,3 18,4 6,4 SE 4,8 1007,3 89 -
07:19 20,2 18,3 5,6 SE 4,7 1007,3 89 -
07:24 20,1 18,2 6,4 SE 5,5 1007,3 89 -
07:29 20,1 18,4 6,4 ESE 5,8 1007,3 90 -
07:34 20,2 18,5 7,4 ESE 6,8 1007,3 90 -
07:39 20,2 18,6 8,0 ESE 6,8 1007,3 90 -
07:44 20,3 18,4 11,3 ESE 9,0 1007,3 89 -
07:49 20,4 18,5 7,4 ESE 6,6 1007,3 89 -
07:54 20,6 18,7 7,4 ESE 4,7 1007,3 89 -
07:59 20,6 18,7 11,3 ESE 6,9 1007,3 89 -
08:04 20,6 18,7 11,3 ESE 7,7 1007,3 89 -
08:09 20,6 18,7 8,0 ESE 4,7 1007,3 89 -
08:14 20,7 18,8 6,4 SE 3,4 1007,3 89 -
08:19 20,8 18,9 8,0 SE 4,0 1007,3 89 -
08:24 20,8 18,9 8,0 SSE 6,6 1007,3 89 -
08:29 20,9 19,1 9,3 SE 5,8 1007,3 89 -
08:34 21,1 19,2 7,4 SSE 4,8 1007,3 89 -
08:39 21,3 19,3 5,6 SE 4,5 1007,3 88 -
08:44 21,6 19,5 8,0 SE 6,3 1007,7 88 -
08:49 21,8 19,6 7,4 SE 5,0 1007,3 87 -
08:54 22,2 19,9 11,1 ESE 6,8 1007,3 87 -
08:59 22,4 20,0 11,1 SSE 6,3 1007,3 86 -
09:04 22,7 20,2 8,0 SE 5,3 1007,3 86 -
09:09 23,0 20,2 11,3 SSE 7,1 1007,3 84 -
09:14 23,2 20,5 11,1 SSE 7,9 1007,3 85 -
09:19 23,4 20,4 16,1 SSE 11,6 1007,3 83 -
09:24 23,8 20,4 16,7 SSE 15,1 1007,3 81 -
09:29 24,1 20,4 19,3 SSE 16,4 1007,3 80 -
09:34 24,3 20,4 22,5 South 19,2 1007,3 79 -
09:39 24,6 20,5 18,5 SSE 15,1 1007,3 78 -
09:44 24,8 20,4 20,4 South 17,4 1007,3 77 -
09:49 24,9 20,4 22,2 South 14,0 1007,3 76 -
09:54 25,2 20,5 18,5 SSE 16,7 1007,3 75 -
09:59 25,4 20,4 19,3 SSE 15,9 1007,0 74 -
10:04 25,7 20,5 22,2 SSE 15,8 1007,0 73 -
10:09 26,1 20,6 17,7 SSE 14,5 1007,0 72 -
10:14 26,3 20,8 18,5 South 17,1 1007,3 72 -
10:19 26,4 20,7 22,2 South 18,2 1007,3 71 -
10:24 26,6 20,6 20,4 South 17,2 1007,3 70 -
10:29 26,8 20,6 18,5 South 15,9 1007,3 69 -
10:34 27,1 20,7 24,1 SSE 19,6 1007,3 68 -
10:39 27,4 20,8 20,4 SSE 18,5 1007,3 67 -
10:44 27,4 20,8 20,4 SSE 17,9 1007,3 67 -
10:49 27,6 20,9 16,7 South 12,2 1007,3 67 -
10:54 28,3 21,1 25,7 South 16,4 1007,3 65 -
10:59 28,2 21,0 22,2 SSW 17,5 1007,3 65 -
11:04 28,2 20,5 27,8 South 20,1 1007,3 63 -
11:09 28,7 21,2 20,4 SSE 15,1 1007,3 64 -
11:14 28,7 20,9 20,9 SSE 20,0 1007,3 63 -
11:19 28,8 20,8 25,9 SSE 19,3 1007,3 62 -
11:24 28,8 20,8 22,2 SE 16,4 1007,3 62 -
11:29 29,1 20,8 27,8 South 21,6 1007,3 61 -
11:34 29,2 20,6 27,8 South 20,1 1007,3 60 -
11:39 29,6 20,7 27,8 South 25,4 1007,0 59 -
11:44 29,7 21,1 24,1 South 18,5 1007,0 60 -
11:49 29,6 21,0 29,0 SSE 20,8 1007,0 60 -
11:54 29,9 20,8 29,6 South 17,4 1007,0 58 -
11:59 30,3 20,6 40,7 SSE 28,5 1006,7 56 -
12:04 30,7 20,7 29,6 SSE 23,2 1006,7 55 -
12:09 30,3 20,6 35,2 South 28,6 1006,7 56 -
12:14 30,4 20,6 29,6 SSW 22,9 1006,7 56 -
12:19 30,8 20,4 42,6 SSE 30,7 1006,7 54 -
12:24 30,8 20,4 33,3 South 24,3 1006,7 54 -
12:29 30,9 20,2 35,2 South 31,5 1006,7 53 -
12:34 31,1 20,3 42,6 South 26,4 1006,3 53 -
12:39 31,1 19,7 42,6 South 29,9 1006,3 51 -
12:44 31,2 20,5 33,3 South 28,0 1006,3 53 -
12:49 31,5 20,4 32,2 South 28,8 1006,3 52 -
12:54 31,6 20,6 29,6 South 20,6 1006,3 52 -
12:59 31,5 20,4 31,5 South 29,3 1006,0 52 -
13:04 32,1 20,7 29,6 South 23,2 1006,0 51 -
13:09 31,9 20,6 31,5 South 24,0 1006,0 51 -
13:14 31,9 20,2 35,2 SSE 31,5 1006,0 50 -
13:19 31,8 20,4 42,6 South 32,0 1006,0 51 -
13:24 31,8 20,4 41,8 South 33,3 1006,0 51 -
13:29 31,9 20,6 38,9 South 24,8 1006,0 51 -
13:34 32,1 20,3 42,6 South 27,8 1006,0 50 -
13:39 32,3 20,2 33,8 South 26,6 1005,6 49 -
13:44 32,0 19,9 40,7 South 29,0 1005,6 49 -
13:49 32,3 20,2 37,0 SSE 34,0 1005,6 49 -
13:54 32,1 20,4 42,6 South 28,0 1005,6 50 -
13:59 32,2 19,8 48,1 SSW 32,3 1005,6 48 -
Daily Summary for Wednesday Sep 19 2018
Time Temp. ( °C ) Dew pt. ( °C ) Wind ( km/h ) from Gust ( km/h ) Pressure ( hPa ) Humid.( % ) Rainrate ( cm )
High32,3 21,2 48,1 South ( 636/1643 ) 34,0 1007,7 93 -
Average23,2 19,2 15,8 SSE #48/168 11,9 1005,6 80 -
Low19,4 18,0 3,7   1,4 1005,6 48 -
Daily Tabular details for Wednesday Sep 19 2018
Time Temp. ( °C ) Dew pt. ( °C ) Wind ( km/h ) from Gust ( km/h ) Pressure ( hPa ) Humid.( % ) Rainrate ( cm )
00:04 20,4 18,3 9,3 East 5,5 1007,7 88 -
00:09 20,3 18,3 11,1 East 8,9 1007,7 88 -
00:14 20,3 18,3 11,1 East 8,4 1007,3 88 -
00:19 20,3 18,3 9,7 East 7,1 1007,7 88 -
00:24 20,3 18,2 8,0 East 6,4 1007,3 88 -
00:29 20,2 18,1 9,7 East 7,9 1007,3 88 -
00:34 20,2 18,3 11,1 East 8,7 1007,7 89 -
00:39 20,3 18,4 13,0 East 8,5 1007,7 89 -
00:44 20,3 18,3 9,7 East 7,7 1007,3 88 -
00:49 20,3 18,3 9,3 East 6,8 1007,7 88 -
00:54 20,3 18,3 9,7 East 7,2 1007,3 88 -
00:59 20,3 18,2 13,0 East 10,1 1007,7 88 -
01:04 20,2 18,2 11,1 East 8,7 1007,7 88 -
01:09 20,2 18,3 14,8 ESE 11,1 1007,3 89 -
01:14 20,2 18,3 14,8 ESE 11,1 1007,7 89 -
01:19 20,2 18,3 14,5 ESE 9,2 1007,7 89 -
01:24 20,2 18,3 14,8 ESE 11,4 1007,7 89 -
01:29 20,2 18,3 14,8 ESE 12,6 1007,7 89 -
01:34 20,2 18,3 11,3 ESE 9,0 1007,7 89 -
01:39 20,2 18,3 13,0 ESE 10,6 1007,7 89 -
01:44 20,2 18,3 12,9 ESE 9,7 1007,7 89 -
01:49 20,2 18,3 13,0 ESE 9,0 1007,7 89 -
01:54 20,2 18,3 13,0 ESE 9,0 1007,7 89 -
01:59 20,2 18,3 11,1 ESE 8,2 1007,3 89 -
02:04 20,2 18,3 7,4 ESE 5,8 1007,7 89 -
02:09 20,2 18,3 8,0 SE 5,3 1007,3 89 -
02:14 20,2 18,3 8,0 SE 5,5 1007,3 89 -
02:19 20,1 18,2 6,4 SE 5,0 1007,3 89 -
02:24 20,1 18,2 5,6 SE 4,0 1007,3 89 -
02:29 20,2 18,3 11,3 ESE 7,1 1007,3 89 -
02:34 20,2 18,3 13,0 ESE 10,9 1007,3 89 -
02:39 20,3 18,4 12,9 ESE 9,7 1007,3 89 -
02:44 20,3 18,2 5,6 ESE 2,9 1007,3 88 -
02:49 20,3 18,4 11,1 ESE 5,8 1007,3 89 -
02:54 20,3 18,4 7,4 SE 3,9 1007,3 89 -
02:59 20,2 18,3 5,6 SE 4,5 1007,3 89 -
03:04 20,2 18,3 5,6 SE 4,7 1007,3 89 -
03:09 20,1 18,2 7,4 ESE 4,7 1007,3 89 -
03:14 20,1 18,2 5,6 SE 4,3 1007,3 89 -
03:19 20,0 18,1 5,6 SE 4,0 1007,3 89 -
03:24 19,9 18,1 5,6 SE 4,2 1007,3 89 -
03:29 19,8 18,2 8,0 SE 5,0 1007,3 90 -
03:34 19,8 18,1 5,6 SE 4,0 1007,0 90 -
03:39 19,7 18,0 5,6 SE 3,5 1007,3 90 -
03:44 19,6 18,1 5,6 SE 2,7 1007,3 91 -
03:49 19,6 18,2 5,6 SE 2,7 1007,0 92 -
03:54 19,6 18,2 5,6 SE 4,7 1007,0 92 -
03:59 19,5 18,2 3,7 SE 2,7 1007,0 92 -
04:04 19,4 18,1 5,6 SE 2,4 1007,0 92 -
04:09 19,4 18,1 3,7 SE 1,4 1007,0 92 -
04:14 19,4 18,1 6,4 SE 3,4 1007,0 92 -
04:19 19,4 18,1 5,6 SE 3,4 1007,0 92 -
04:24 19,4 18,3 8,0 SE 6,6 1007,0 93 -
04:29 19,6 18,2 9,3 SE 6,9 1007,0 92 -
04:34 19,6 18,3 9,7 SE 7,4 1007,0 92 -
04:39 19,6 18,2 8,0 SE 7,1 1007,0 92 -
04:44 19,6 18,3 7,4 SSE 5,3 1007,0 92 -
04:49 19,6 18,2 8,0 SSE 6,1 1006,7 92 -
04:54 19,4 18,1 11,3 SSE 9,3 1006,7 92 -
04:59 19,5 18,2 11,3 SSE 9,8 1006,7 92 -
05:04 19,6 18,2 13,0 SSE 10,3 1006,7 92 -
05:09 19,6 18,1 11,3 SSE 10,5 1006,7 91 -
05:14 19,6 18,1 11,3 SSE 10,6 1006,7 91 -
05:19 19,6 18,2 11,1 SSE 9,8 1006,7 92 -
05:24 19,7 18,2 11,1 SSE 7,6 1007,0 91 -
05:29 19,7 18,2 8,0 SSE 6,8 1007,0 91 -
05:34 19,7 18,2 9,3 SE 7,1 1006,7 91 -
05:39 19,8 18,3 11,3 SE 10,3 1006,7 91 -
05:44 19,8 18,3 13,0 SSE 8,5 1007,0 91 -
05:49 19,8 18,3 7,4 SSE 7,2 1007,0 91 -
05:54 19,9 18,4 9,3 SE 5,8 1007,0 91 -
05:59 19,9 18,4 8,0 SE 5,8 1007,0 91 -
06:04 19,9 18,3 7,4 SSE 6,4 1007,0 90 -
06:09 20,0 18,3 7,4 SSE 6,9 1007,0 90 -
06:14 20,1 18,4 9,3 SSE 6,1 1007,0 90 -
06:19 20,2 18,5 7,4 SSE 7,2 1007,0 90 -
06:24 20,2 18,6 9,3 SSE 7,7 1007,0 90 -
06:29 20,3 18,4 9,7 SSE 8,4 1007,0 89 -
06:34 20,3 18,4 9,7 SSE 8,5 1007,0 89 -
06:39 20,2 18,3 11,1 SSE 9,3 1007,0 89 -
06:44 20,2 18,5 13,0 SSE 9,8 1007,0 90 -
06:49 20,3 18,6 11,1 South 8,0 1007,0 90 -
06:54 20,3 18,4 11,1 SSE 8,7 1007,0 89 -
06:59 20,4 18,6 8,0 SSE 4,7 1007,0 89 -
07:04 20,4 18,6 5,6 SE 3,9 1007,0 89 -
07:09 20,4 18,5 9,7 SE 5,3 1007,0 89 -
07:14 20,3 18,4 6,4 SE 4,8 1007,3 89 -
07:19 20,2 18,3 5,6 SE 4,7 1007,3 89 -
07:24 20,1 18,2 6,4 SE 5,5 1007,3 89 -
07:29 20,1 18,4 6,4 ESE 5,8 1007,3 90 -
07:34 20,2 18,5 7,4 ESE 6,8 1007,3 90 -
07:39 20,2 18,6 8,0 ESE 6,8 1007,3 90 -
07:44 20,3 18,4 11,3 ESE 9,0 1007,3 89 -
07:49 20,4 18,5 7,4 ESE 6,6 1007,3 89 -
07:54 20,6 18,7 7,4 ESE 4,7 1007,3 89 -
07:59 20,6 18,7 11,3 ESE 6,9 1007,3 89 -
08:04 20,6 18,7 11,3 ESE 7,7 1007,3 89 -
08:09 20,6 18,7 8,0 ESE 4,7 1007,3 89 -
08:14 20,7 18,8 6,4 SE 3,4 1007,3 89 -
08:19 20,8 18,9 8,0 SE 4,0 1007,3 89 -
08:24 20,8 18,9 8,0 SSE 6,6 1007,3 89 -
08:29 20,9 19,1 9,3 SE 5,8 1007,3 89 -
08:34 21,1 19,2 7,4 SSE 4,8 1007,3 89 -
08:39 21,3 19,3 5,6 SE 4,5 1007,3 88 -
08:44 21,6 19,5 8,0 SE 6,3 1007,7 88 -
08:49 21,8 19,6 7,4 SE 5,0 1007,3 87 -
08:54 22,2 19,9 11,1 ESE 6,8 1007,3 87 -
08:59 22,4 20,0 11,1 SSE 6,3 1007,3 86 -
09:04 22,7 20,2 8,0 SE 5,3 1007,3 86 -
09:09 23,0 20,2 11,3 SSE 7,1 1007,3 84 -
09:14 23,2 20,5 11,1 SSE 7,9 1007,3 85 -
09:19 23,4 20,4 16,1 SSE 11,6 1007,3 83 -
09:24 23,8 20,4 16,7 SSE 15,1 1007,3 81 -
09:29 24,1 20,4 19,3 SSE 16,4 1007,3 80 -
09:34 24,3 20,4 22,5 South 19,2 1007,3 79 -
09:39 24,6 20,5 18,5 SSE 15,1 1007,3 78 -
09:44 24,8 20,4 20,4 South 17,4 1007,3 77 -
09:49 24,9 20,4 22,2 South 14,0 1007,3 76 -
09:54 25,2 20,5 18,5 SSE 16,7 1007,3 75 -
09:59 25,4 20,4 19,3 SSE 15,9 1007,0 74 -
10:04 25,7 20,5 22,2 SSE 15,8 1007,0 73 -
10:09 26,1 20,6 17,7 SSE 14,5 1007,0 72 -
10:14 26,3 20,8 18,5 South 17,1 1007,3 72 -
10:19 26,4 20,7 22,2 South 18,2 1007,3 71 -
10:24 26,6 20,6 20,4 South 17,2 1007,3 70 -
10:29 26,8 20,6 18,5 South 15,9 1007,3 69 -
10:34 27,1 20,7 24,1 SSE 19,6 1007,3 68 -
10:39 27,4 20,8 20,4 SSE 18,5 1007,3 67 -
10:44 27,4 20,8 20,4 SSE 17,9 1007,3 67 -
10:49 27,6 20,9 16,7 South 12,2 1007,3 67 -
10:54 28,3 21,1 25,7 South 16,4 1007,3 65 -
10:59 28,2 21,0 22,2 SSW 17,5 1007,3 65 -
11:04 28,2 20,5 27,8 South 20,1 1007,3 63 -
11:09 28,7 21,2 20,4 SSE 15,1 1007,3 64 -
11:14 28,7 20,9 20,9 SSE 20,0 1007,3 63 -
11:19 28,8 20,8 25,9 SSE 19,3 1007,3 62 -
11:24 28,8 20,8 22,2 SE 16,4 1007,3 62 -
11:29 29,1 20,8 27,8 South 21,6 1007,3 61 -
11:34 29,2 20,6 27,8 South 20,1 1007,3 60 -
11:39 29,6 20,7 27,8 South 25,4 1007,0 59 -
11:44 29,7 21,1 24,1 South 18,5 1007,0 60 -
11:49 29,6 21,0 29,0 SSE 20,8 1007,0 60 -
11:54 29,9 20,8 29,6 South 17,4 1007,0 58 -
11:59 30,3 20,6 40,7 SSE 28,5 1006,7 56 -
12:04 30,7 20,7 29,6 SSE 23,2 1006,7 55 -
12:09 30,3 20,6 35,2 South 28,6 1006,7 56 -
12:14 30,4 20,6 29,6 SSW 22,9 1006,7 56 -
12:19 30,8 20,4 42,6 SSE 30,7 1006,7 54 -
12:24 30,8 20,4 33,3 South 24,3 1006,7 54 -
12:29 30,9 20,2 35,2 South 31,5 1006,7 53 -
12:34 31,1 20,3 42,6 South 26,4 1006,3 53 -
12:39 31,1 19,7 42,6 South 29,9 1006,3 51 -
12:44 31,2 20,5 33,3 South 28,0 1006,3 53 -
12:49 31,5 20,4 32,2 South 28,8 1006,3 52 -
12:54 31,6 20,6 29,6 South 20,6 1006,3 52 -
12:59 31,5 20,4 31,5 South 29,3 1006,0 52 -
13:04 32,1 20,7 29,6 South 23,2 1006,0 51 -
13:09 31,9 20,6 31,5 South 24,0 1006,0 51 -
13:14 31,9 20,2 35,2 SSE 31,5 1006,0 50 -
13:19 31,8 20,4 42,6 South 32,0 1006,0 51 -
13:24 31,8 20,4 41,8 South 33,3 1006,0 51 -
13:29 31,9 20,6 38,9 South 24,8 1006,0 51 -
13:34 32,1 20,3 42,6 South 27,8 1006,0 50 -
13:39 32,3 20,2 33,8 South 26,6 1005,6 49 -
13:44 32,0 19,9 40,7 South 29,0 1005,6 49 -
13:49 32,3 20,2 37,0 SSE 34,0 1005,6 49 -
13:54 32,1 20,4 42,6 South 28,0 1005,6 50 -
13:59 32,2 19,8 48,1 SSW 32,3 1005,6 48 -

Download your copy of this data-set  here

Our weather-data as stored at Weather Underground. Script developed by Jim McMurry. Adapted for the template by Leuven-Template.eu